createdAt,value
2018-05-08T00:01:09.774Z,3.47
2018-05-08T00:03:37.227Z,3.97
2018-05-08T00:06:05.429Z,3.47
2018-05-08T00:08:33.291Z,3.30
2018-05-08T00:11:00.743Z,3.57
2018-05-08T00:13:28.195Z,3.73
2018-05-08T00:15:56.028Z,3.57
2018-05-08T00:18:23.459Z,3.80
2018-05-08T00:20:52.030Z,3.40
2018-05-08T00:23:19.486Z,4.07
2018-05-08T00:25:47.314Z,4.10
2018-05-08T00:28:14.764Z,3.70
2018-05-08T00:30:42.210Z,4.23
2018-05-08T00:33:10.034Z,3.97
2018-05-08T00:35:37.462Z,4.40
2018-05-08T00:38:04.906Z,3.80
2018-05-08T00:40:32.347Z,4.40
2018-05-08T00:43:00.187Z,3.80
2018-05-08T00:45:28.374Z,3.90
2018-05-08T00:47:55.811Z,4.20
2018-05-08T00:50:24.016Z,4.47
2018-05-08T00:52:52.218Z,4.77
2018-05-08T00:55:19.655Z,4.00
2018-05-08T00:57:47.103Z,3.80
2018-05-08T01:00:14.531Z,4.03
2018-05-08T01:02:42.351Z,4.10
2018-05-08T01:05:10.928Z,4.27
2018-05-08T01:07:38.367Z,4.30
2018-05-08T01:10:06.191Z,4.40
2018-05-08T01:12:34.415Z,3.80
2018-05-08T01:15:01.858Z,4.40
2018-05-08T01:17:29.313Z,4.00
2018-05-08T01:19:57.509Z,4.07
2018-05-08T01:22:25.346Z,4.43
2018-05-08T01:24:52.809Z,4.37
2018-05-08T01:27:20.259Z,3.93
2018-05-08T01:29:47.700Z,4.33
2018-05-08T01:32:15.146Z,4.10
2018-05-08T01:34:42.650Z,6.10
2018-05-08T01:37:10.093Z,3.70
2018-05-08T01:39:37.534Z,4.20
2018-05-08T01:42:04.967Z,4.47
2018-05-08T01:44:33.191Z,4.40
2018-05-08T01:47:01.044Z,4.23
2018-05-08T01:49:28.492Z,4.90
2018-05-08T01:51:55.919Z,4.53
2018-05-08T01:54:23.756Z,3.83
2018-05-08T01:56:51.194Z,5.17
2018-05-08T01:59:18.653Z,3.80
2018-05-08T02:01:47.237Z,4.70
2018-05-08T02:04:14.678Z,4.17
2018-05-08T02:06:42.111Z,4.77
2018-05-08T02:09:09.547Z,3.80
2018-05-08T02:11:37.750Z,4.23
2018-05-08T02:14:05.177Z,4.50
2018-05-08T02:16:33.375Z,4.47
2018-05-08T02:19:00.811Z,4.30
2018-05-08T02:21:29.004Z,5.00
2018-05-08T02:23:56.435Z,4.77
2018-05-08T02:26:24.261Z,4.50
2018-05-08T02:28:52.104Z,4.80
2018-05-08T02:31:19.534Z,5.03
2018-05-08T02:33:46.970Z,5.70
2018-05-08T02:36:14.797Z,4.90
2018-05-08T02:38:42.237Z,4.70
2018-05-08T02:41:09.660Z,4.80
2018-05-08T02:43:37.478Z,5.20
2018-05-08T02:46:04.912Z,4.87
2018-05-08T02:48:32.339Z,4.03
2018-05-08T02:51:00.159Z,4.97
2018-05-08T02:53:27.592Z,4.90
2018-05-08T02:55:55.026Z,5.13
2018-05-08T02:58:22.446Z,4.80
2018-05-08T03:00:49.884Z,5.30
2018-05-08T03:03:17.308Z,4.97
2018-05-08T03:05:44.759Z,4.33
2018-05-08T03:08:12.179Z,4.23
2018-05-08T03:10:40.388Z,4.73
2018-05-08T03:13:07.815Z,4.27
2018-05-08T03:15:35.247Z,5.00
2018-05-08T03:18:04.178Z,5.00
2018-05-08T03:20:31.610Z,5.07
2018-05-08T03:22:59.806Z,5.17
2018-05-08T03:25:27.243Z,4.57
2018-05-08T03:27:55.435Z,4.40
2018-05-08T03:30:22.875Z,4.80
2018-05-08T03:32:51.087Z,4.40
2018-05-08T03:35:18.510Z,4.43
2018-05-08T03:37:46.700Z,5.13
2018-05-08T03:40:14.139Z,5.27
2018-05-08T03:42:42.339Z,5.13
2018-05-08T03:45:09.767Z,5.13
2018-05-08T03:47:37.973Z,5.13
2018-05-08T03:50:05.803Z,4.93
2018-05-08T03:52:34.012Z,4.27
2018-05-08T03:55:01.450Z,4.60
2018-05-08T03:57:29.333Z,4.73
2018-05-08T03:59:56.707Z,5.50
2018-05-08T04:02:35.939Z,6.20
2018-05-08T04:05:15.263Z,6.30
2018-05-08T04:07:54.679Z,6.23
2018-05-08T04:10:22.114Z,5.97
2018-05-08T04:12:50.306Z,5.27
2018-05-08T04:15:18.135Z,4.83
2018-05-08T04:17:45.570Z,5.40
2018-05-08T04:20:13.394Z,5.50
2018-05-08T04:22:41.597Z,5.83
2018-05-08T04:25:09.043Z,4.57
2018-05-08T04:27:36.478Z,4.73
2018-05-08T04:30:03.912Z,5.33
2018-05-08T04:32:32.123Z,5.17
2018-05-08T04:34:59.612Z,5.20
2018-05-08T04:37:28.134Z,4.53
2018-05-08T04:39:55.954Z,5.33
2018-05-08T04:42:24.146Z,5.20
2018-05-08T04:44:51.574Z,5.20
2018-05-08T04:47:19.094Z,4.53
2018-05-08T04:49:46.435Z,5.00
2018-05-08T04:52:14.262Z,4.70
2018-05-08T04:54:41.708Z,4.87
2018-05-08T04:57:09.154Z,5.47
2018-05-08T04:59:36.973Z,4.87
2018-05-08T05:02:05.185Z,4.73
2018-05-08T05:04:33.784Z,4.47
2018-05-08T05:07:02.007Z,4.50
2018-05-08T05:09:29.411Z,4.60
2018-05-08T05:11:57.234Z,4.90
2018-05-08T05:14:25.436Z,4.70
2018-05-08T05:16:52.870Z,5.00
2018-05-08T05:19:20.298Z,4.43
2018-05-08T05:21:48.142Z,4.53
2018-05-08T05:24:15.995Z,4.73
2018-05-08T05:26:43.434Z,4.17
2018-05-08T05:29:11.237Z,3.97
2018-05-08T05:31:39.493Z,4.63
2018-05-08T05:34:06.930Z,4.23
2018-05-08T05:36:34.588Z,4.00
2018-05-08T05:39:02.040Z,4.53
2018-05-08T05:41:29.475Z,4.03
2018-05-08T05:43:57.677Z,3.83
2018-05-08T05:46:26.261Z,3.73
2018-05-08T05:48:53.698Z,5.80
2018-05-08T05:51:21.143Z,5.40
2018-05-08T05:53:49.351Z,4.90
2018-05-08T05:56:16.794Z,5.07
2018-05-08T05:58:44.223Z,5.30
2018-05-08T06:01:12.434Z,5.60
2018-05-08T06:03:39.871Z,5.77
2018-05-08T06:06:07.310Z,5.63
2018-05-08T06:08:35.522Z,5.37
2018-05-08T06:11:03.350Z,6.20
2018-05-08T06:13:30.784Z,5.47
2018-05-08T06:15:58.238Z,5.63
2018-05-08T06:18:25.680Z,5.17
2018-05-08T06:20:53.134Z,6.20
2018-05-08T06:23:21.326Z,6.07
2018-05-08T06:25:48.762Z,5.10
2018-05-08T06:28:16.189Z,5.50
2018-05-08T06:30:43.618Z,4.40
2018-05-08T06:33:11.823Z,3.10
2018-05-08T06:35:40.404Z,2.93
2018-05-08T06:38:08.599Z,2.30
2018-05-08T06:40:36.458Z,2.47
2018-05-08T06:43:03.925Z,2.77
2018-05-08T06:45:31.358Z,2.67
2018-05-08T06:47:59.563Z,2.83
2018-05-08T06:50:27.397Z,3.00
2018-05-08T06:52:55.599Z,3.07
2018-05-08T06:55:23.422Z,3.10
2018-05-08T06:57:50.852Z,3.10
2018-05-08T07:00:18.675Z,3.20
2018-05-08T07:02:46.112Z,2.50
2018-05-08T07:05:13.532Z,3.53
2018-05-08T07:07:41.732Z,2.70
2018-05-08T07:10:09.931Z,2.70
2018-05-08T07:12:37.371Z,2.57
2018-05-08T07:15:04.795Z,2.80
2018-05-08T07:17:32.998Z,3.10
2018-05-08T07:20:00.431Z,2.70
2018-05-08T07:22:29.210Z,2.50
2018-05-08T07:24:57.034Z,2.60
2018-05-08T07:27:24.492Z,2.47
2018-05-08T07:29:51.943Z,2.90
2018-05-08T07:32:19.360Z,2.67
2018-05-08T07:34:47.804Z,2.60
2018-05-08T07:37:16.023Z,3.13
2018-05-08T07:39:43.439Z,2.80
2018-05-08T07:42:10.871Z,3.00
2018-05-08T07:44:38.302Z,2.50
2018-05-08T07:47:05.746Z,2.77
2018-05-08T07:49:33.169Z,3.10
2018-05-08T07:52:01.362Z,3.10
2018-05-08T07:54:28.795Z,3.60
2018-05-08T07:56:56.222Z,2.77
2018-05-08T07:59:23.646Z,2.87
2018-05-08T08:01:51.086Z,2.30
2018-05-08T08:04:19.294Z,2.50
2018-05-08T08:06:46.734Z,2.37
2018-05-08T08:09:14.167Z,2.50
2018-05-08T08:11:41.591Z,2.70
2018-05-08T08:14:09.031Z,2.10
2018-05-08T08:16:36.462Z,3.13
2018-05-08T08:19:03.898Z,2.00
2018-05-08T08:21:31.323Z,2.37
2018-05-08T08:23:58.755Z,2.70
2018-05-08T08:26:26.180Z,2.50
2018-05-08T08:28:53.612Z,2.40
2018-05-08T08:31:21.038Z,2.30
2018-05-08T08:33:48.867Z,2.00
2018-05-08T08:36:16.298Z,2.37
2018-05-08T08:38:43.726Z,2.30
2018-05-08T08:41:11.936Z,2.17
2018-05-08T08:43:39.362Z,2.43
2018-05-08T08:46:07.562Z,2.00
2018-05-08T08:48:34.987Z,2.30
2018-05-08T08:51:03.228Z,2.43
2018-05-08T08:53:30.659Z,2.30
2018-05-08T08:55:58.090Z,2.33
2018-05-08T08:58:26.288Z,2.10
2018-05-08T09:00:53.722Z,2.40
2018-05-08T09:03:21.160Z,2.43
2018-05-08T09:05:49.362Z,2.23
2018-05-08T09:08:16.795Z,1.87
2018-05-08T09:10:44.990Z,2.43
2018-05-08T09:13:12.440Z,1.90
2018-05-08T09:15:40.645Z,2.30
2018-05-08T09:18:08.078Z,2.13
2018-05-08T09:20:35.505Z,2.00
2018-05-08T09:23:03.715Z,2.20
2018-05-08T09:25:31.126Z,2.23
2018-05-08T09:27:59.335Z,2.03
2018-05-08T09:30:27.159Z,2.20
2018-05-08T09:32:54.669Z,2.30
2018-05-08T09:35:22.024Z,2.03
2018-05-08T09:37:49.483Z,2.17
2018-05-08T09:40:16.900Z,1.63
2018-05-08T09:42:45.095Z,2.37
2018-05-08T09:45:12.515Z,1.83
2018-05-08T09:47:40.346Z,2.03
2018-05-08T09:50:07.779Z,1.93
2018-05-08T09:52:35.597Z,1.70
2018-05-08T09:55:03.036Z,2.13
2018-05-08T09:57:30.462Z,1.87
2018-05-08T09:59:57.903Z,1.80
2018-05-08T10:02:25.331Z,1.80
2018-05-08T10:04:53.527Z,1.80
2018-05-08T10:07:20.951Z,1.87
2018-05-08T10:09:48.387Z,2.10
2018-05-08T10:12:15.817Z,1.70
2018-05-08T10:14:44.384Z,1.60
2018-05-08T10:17:12.210Z,1.83
2018-05-08T10:19:39.654Z,1.67
2018-05-08T10:22:07.091Z,2.03
2018-05-08T10:24:34.528Z,2.40
2018-05-08T10:27:01.954Z,2.33
2018-05-08T10:29:30.158Z,1.97
2018-05-08T10:31:57.590Z,1.77
2018-05-08T10:34:25.817Z,1.80
2018-05-08T10:36:53.648Z,2.10
2018-05-08T10:39:21.072Z,1.97
2018-05-08T10:41:49.271Z,2.10
2018-05-08T10:44:16.707Z,1.90
2018-05-08T10:46:44.920Z,1.90
2018-05-08T10:49:12.354Z,1.70
2018-05-08T10:51:39.771Z,1.90
2018-05-08T10:54:07.194Z,2.13
2018-05-08T10:56:34.631Z,1.50
2018-05-08T10:59:02.830Z,1.60
2018-05-08T11:01:30.276Z,1.90
2018-05-08T11:03:57.727Z,1.67
2018-05-08T11:06:30.143Z,1.90
2018-05-08T11:08:57.982Z,1.60
2018-05-08T11:11:25.414Z,2.10
2018-05-08T11:13:52.848Z,2.03
2018-05-08T11:16:20.277Z,1.70
2018-05-08T11:18:50.422Z,1.97
2018-05-08T11:21:17.852Z,2.17
2018-05-08T11:23:45.290Z,1.50
2018-05-08T11:26:13.120Z,1.70
2018-05-08T11:28:40.543Z,2.00
2018-05-08T11:31:08.738Z,1.60
2018-05-08T11:33:36.163Z,1.67
2018-05-08T11:36:03.599Z,1.63
2018-05-08T11:38:31.429Z,1.30
2018-05-08T11:40:58.858Z,1.93
2018-05-08T11:43:27.062Z,1.70
2018-05-08T11:45:54.502Z,1.43
2018-05-08T11:48:22.707Z,1.60
2018-05-08T11:50:50.149Z,2.10
2018-05-08T11:53:17.567Z,1.77
2018-05-08T11:55:45.776Z,1.60
2018-05-08T11:58:13.211Z,1.43
2018-05-08T12:00:41.414Z,1.60
2018-05-08T12:03:09.607Z,1.63
2018-05-08T12:05:37.057Z,1.60
2018-05-08T12:08:04.489Z,2.17
2018-05-08T12:10:31.931Z,1.60
2018-05-08T12:12:59.366Z,1.80
2018-05-08T12:15:27.562Z,1.53
2018-05-08T12:17:54.998Z,1.80
2018-05-08T12:20:23.203Z,1.90
2018-05-08T12:22:50.628Z,2.00
2018-05-08T12:25:18.834Z,1.57
2018-05-08T12:27:46.263Z,1.97
2018-05-08T12:30:14.470Z,1.60
2018-05-08T12:32:44.018Z,1.57
2018-05-08T12:35:11.457Z,1.67
2018-05-08T12:37:39.281Z,2.00
2018-05-08T12:40:06.716Z,1.90
2018-05-08T12:42:35.495Z,1.80
2018-05-08T12:45:03.328Z,1.90
2018-05-08T12:47:30.752Z,1.70
2018-05-08T12:49:59.083Z,2.00
2018-05-08T12:52:26.511Z,1.60
2018-05-08T12:54:53.943Z,1.97
2018-05-08T12:57:21.374Z,1.77
2018-05-08T12:59:48.810Z,2.07
2018-05-08T13:02:16.645Z,1.60
2018-05-08T13:04:44.075Z,1.97
2018-05-08T13:07:11.507Z,1.80
2018-05-08T13:09:38.950Z,1.90
2018-05-08T13:12:07.147Z,1.90
2018-05-08T13:14:34.571Z,2.00
2018-05-08T13:17:02.775Z,1.57
2018-05-08T13:19:30.199Z,1.73
2018-05-08T13:21:58.417Z,2.33
2018-05-08T13:24:25.833Z,1.80
2018-05-08T13:26:54.033Z,1.50
2018-05-08T13:29:21.454Z,1.53
2018-05-08T13:31:49.288Z,1.90
2018-05-08T13:34:16.712Z,2.00
2018-05-08T13:36:44.153Z,2.23
2018-05-08T13:39:12.338Z,1.97
2018-05-08T13:41:40.542Z,1.73
2018-05-08T13:44:07.970Z,2.03
2018-05-08T13:46:36.175Z,1.60
2018-05-08T13:49:04.002Z,2.23
2018-05-08T13:51:32.202Z,1.77
2018-05-08T13:54:00.403Z,2.40
2018-05-08T13:56:28.232Z,2.03
2018-05-08T13:58:55.670Z,2.00
2018-05-08T14:01:23.123Z,2.00
2018-05-08T14:03:50.947Z,2.00
2018-05-08T14:06:18.785Z,1.93
2018-05-08T14:08:46.219Z,2.20
2018-05-08T14:11:13.653Z,2.20
2018-05-08T14:13:41.859Z,1.87
2018-05-08T14:16:09.347Z,1.80
2018-05-08T14:18:37.183Z,1.93
2018-05-08T14:21:04.614Z,2.10
2018-05-08T14:23:32.440Z,2.17
2018-05-08T14:25:59.870Z,1.90
2018-05-08T14:28:27.313Z,1.50
2018-05-08T14:30:54.746Z,2.30
2018-05-08T14:33:22.936Z,1.80
2018-05-08T14:35:50.374Z,1.80
2018-05-08T14:38:18.696Z,1.40
2018-05-08T14:40:46.275Z,1.93
2018-05-08T14:43:13.810Z,1.83
2018-05-08T14:45:42.311Z,1.70
2018-05-08T14:48:10.352Z,1.60
2018-05-08T14:53:11.487Z,1.83
2018-05-08T14:55:38.910Z,2.20
2018-05-08T14:58:06.745Z,2.00
2018-05-08T15:00:36.246Z,1.90
2018-05-08T15:03:05.175Z,1.73
2018-05-08T15:05:32.606Z,1.73
2018-05-08T15:08:00.043Z,1.93
2018-05-08T15:10:33.916Z,2.27
2018-05-08T15:13:01.958Z,1.60
2018-05-08T15:15:30.854Z,1.70
2018-05-08T15:17:58.287Z,2.10
2018-05-08T15:20:26.149Z,1.70
2018-05-08T15:22:54.441Z,1.60
2018-05-08T15:25:22.288Z,2.07
2018-05-08T15:27:50.159Z,1.73
2018-05-08T15:30:18.945Z,2.00
2018-05-08T15:32:46.391Z,2.20
2018-05-08T15:35:14.237Z,1.93
2018-05-08T15:37:43.225Z,1.70
2018-05-08T15:40:11.531Z,1.80
2018-05-08T15:42:39.731Z,2.27
2018-05-08T15:45:07.549Z,1.73
2018-05-08T15:47:36.331Z,2.00
2018-05-08T15:50:05.122Z,1.87
2018-05-08T15:52:33.326Z,1.70
2018-05-08T15:55:01.142Z,1.80
2018-05-08T15:57:28.582Z,2.10
2018-05-08T15:59:57.147Z,1.80
2018-05-08T16:02:24.587Z,1.87
2018-05-08T16:04:52.008Z,2.20
2018-05-08T16:07:19.437Z,1.80
2018-05-08T16:09:47.640Z,2.17
2018-05-08T16:12:15.071Z,2.03
2018-05-08T16:14:42.620Z,2.07
2018-05-08T16:17:10.063Z,2.17
2018-05-08T16:19:37.491Z,2.20
2018-05-08T16:22:04.929Z,1.80
2018-05-08T16:24:32.746Z,2.13
2018-05-08T16:27:00.946Z,2.00
2018-05-08T16:29:28.370Z,1.63
2018-05-08T16:31:55.803Z,2.07
2018-05-08T16:34:23.251Z,2.50
2018-05-08T16:36:50.682Z,2.00
2018-05-08T16:39:18.114Z,2.07
2018-05-08T16:41:45.936Z,1.90
2018-05-08T16:44:13.768Z,1.80
2018-05-08T16:46:41.199Z,2.10
2018-05-08T16:49:09.397Z,1.77
2018-05-08T16:51:36.832Z,2.30
2018-05-08T16:54:04.343Z,2.10
2018-05-08T16:56:31.684Z,2.10
2018-05-08T16:58:59.133Z,2.37
2018-05-08T17:01:26.571Z,2.50
2018-05-08T17:03:54.055Z,1.77
2018-05-08T17:06:21.478Z,2.10
2018-05-08T17:08:48.910Z,2.40
2018-05-08T17:11:16.731Z,2.00
2018-05-08T17:13:44.167Z,2.30
2018-05-08T17:16:12.359Z,2.23
2018-05-08T17:18:39.797Z,2.20
2018-05-08T17:21:07.229Z,1.80
2018-05-08T17:23:35.428Z,2.60
2018-05-08T17:26:03.626Z,1.60
2018-05-08T17:28:31.063Z,2.40
2018-05-08T17:30:58.906Z,2.60
2018-05-08T17:33:27.156Z,2.20
2018-05-08T17:35:54.541Z,2.37
2018-05-08T17:38:22.364Z,2.20
2018-05-08T17:40:49.786Z,2.10
2018-05-08T17:43:17.225Z,1.80
2018-05-08T17:45:44.648Z,2.10
2018-05-08T17:48:12.844Z,2.17
2018-05-08T17:50:40.268Z,1.73
2018-05-08T17:53:08.931Z,2.70
2018-05-08T17:55:36.366Z,2.23
2018-05-08T17:58:03.794Z,2.50
2018-05-08T18:00:31.982Z,2.30
2018-05-08T18:03:00.564Z,2.17
2018-05-08T18:05:27.990Z,2.00
2018-05-08T18:07:56.188Z,2.10
2018-05-08T18:10:24.012Z,2.40
2018-05-08T18:12:51.443Z,2.20
2018-05-08T18:15:18.871Z,1.90
2018-05-08T18:17:46.377Z,2.13
2018-05-08T18:20:14.499Z,1.90
2018-05-08T18:22:43.086Z,2.27
2018-05-08T18:25:10.536Z,2.03
2018-05-08T18:27:38.732Z,2.10
2018-05-08T18:30:06.171Z,2.30
2018-05-08T18:32:34.364Z,2.40
2018-05-08T18:35:01.804Z,2.10
2018-05-08T18:37:29.231Z,2.63
2018-05-08T18:39:57.054Z,3.00
2018-05-08T18:42:25.246Z,2.40
2018-05-08T18:44:53.463Z,2.50
2018-05-08T18:47:20.880Z,2.57
2018-05-08T18:49:49.083Z,2.10
2018-05-08T18:52:16.507Z,2.43
2018-05-08T18:54:44.710Z,2.20
2018-05-08T18:57:12.135Z,2.27
2018-05-08T18:59:39.585Z,19.97
2018-05-08T19:02:08.514Z,4.33
2018-05-08T19:04:35.947Z,2.80
2018-05-08T19:07:03.771Z,3.00
2018-05-08T19:09:32.456Z,4.00
2018-05-08T19:11:59.786Z,4.50
2018-05-08T19:14:27.244Z,3.53
2018-05-08T19:16:54.668Z,3.63
2018-05-08T19:19:28.456Z,4.43
2018-05-08T19:21:55.878Z,3.67
2018-05-08T19:24:28.895Z,3.57
2018-05-08T19:26:56.719Z,3.80
2018-05-08T19:29:29.835Z,3.73
2018-05-08T19:31:57.387Z,3.53
2018-05-08T19:37:30.632Z,3.50
2018-05-08T19:39:59.198Z,3.47
2018-05-08T19:42:26.627Z,2.83
2018-05-08T19:44:54.063Z,3.20
2018-05-08T19:47:22.271Z,3.43
2018-05-08T19:49:49.711Z,3.20
2018-05-08T19:52:17.535Z,3.70
2018-05-08T19:54:45.743Z,3.03
2018-05-08T19:57:13.182Z,4.07
2018-05-08T19:59:40.607Z,3.03
2018-05-08T20:02:08.804Z,3.93
2018-05-08T20:04:36.438Z,3.20
2018-05-08T20:07:03.886Z,3.17
2018-05-08T20:09:31.326Z,3.20
2018-05-08T20:11:58.747Z,3.30
2018-05-08T20:14:26.202Z,3.00
2018-05-08T20:16:53.629Z,3.20
2018-05-08T20:19:21.818Z,2.77
2018-05-08T20:21:50.204Z,2.87
2018-05-08T20:24:17.619Z,2.90
2018-05-08T20:26:45.052Z,2.97
2018-05-08T20:29:13.262Z,3.10
2018-05-08T20:31:41.468Z,2.90
2018-05-08T20:34:08.897Z,3.10
2018-05-08T20:36:36.748Z,3.73
2018-05-08T20:39:05.681Z,3.27
2018-05-08T20:41:33.101Z,3.20
2018-05-08T20:44:04.038Z,3.07
2018-05-08T20:46:32.642Z,3.10
2018-05-08T20:49:00.853Z,3.03
2018-05-08T20:51:28.283Z,3.60
2018-05-08T20:53:55.702Z,2.97
2018-05-08T20:56:23.147Z,3.30
2018-05-08T20:58:50.965Z,3.50
2018-05-08T21:01:18.499Z,3.33
2018-05-08T21:03:45.830Z,2.90
2018-05-08T21:06:13.264Z,3.00
2018-05-08T21:08:41.461Z,2.97
2018-05-08T21:11:08.892Z,3.00
2018-05-08T21:13:36.326Z,4.10
2018-05-08T21:16:03.834Z,3.20
2018-05-08T21:18:32.054Z,3.10
2018-05-08T21:20:59.499Z,3.53
2018-05-08T21:23:26.923Z,3.13
2018-05-08T21:25:54.774Z,3.30
2018-05-08T21:28:27.966Z,3.67
2018-05-08T21:31:01.120Z,3.53
2018-05-08T21:33:29.314Z,3.53
2018-05-08T21:35:56.756Z,4.20
2018-05-08T21:38:24.180Z,3.20
2018-05-08T21:40:51.616Z,3.40
2018-05-08T21:43:20.180Z,3.43
2018-05-08T21:45:47.619Z,3.30
2018-05-08T21:48:16.407Z,3.13
2018-05-08T21:50:43.842Z,2.60
2018-05-08T21:53:12.035Z,3.70
2018-05-08T21:55:39.864Z,3.07
2018-05-08T21:58:07.286Z,2.80
2018-05-08T22:00:35.485Z,2.87
2018-05-08T22:03:02.919Z,3.30
2018-05-08T22:05:31.127Z,3.10
2018-05-08T22:07:59.320Z,3.00
2018-05-08T22:10:26.752Z,3.50
2018-05-08T22:12:54.179Z,3.20
2018-05-08T22:15:22.375Z,3.43
2018-05-08T22:17:49.814Z,3.00
2018-05-08T22:20:18.093Z,3.00
2018-05-08T22:22:46.279Z,3.20
2018-05-08T22:25:13.702Z,3.03
2018-05-08T22:27:41.146Z,3.40
2018-05-08T22:30:08.574Z,3.47
2018-05-08T22:32:36.019Z,3.00
2018-05-08T22:35:03.443Z,3.47
2018-05-08T22:37:31.718Z,3.80
2018-05-08T22:39:59.085Z,3.13
2018-05-08T22:42:27.290Z,3.80
2018-05-08T22:44:55.114Z,3.40
2018-05-08T22:47:22.542Z,3.27
2018-05-08T22:49:50.379Z,3.73
2018-05-08T22:52:18.002Z,3.07
2018-05-08T22:54:45.488Z,3.27
2018-05-08T22:57:12.918Z,3.60
2018-05-08T22:59:41.899Z,3.50
2018-05-08T23:02:10.099Z,3.03
2018-05-08T23:04:37.519Z,2.90
2018-05-08T23:07:05.716Z,3.40
2018-05-08T23:09:33.923Z,3.80
2018-05-08T23:12:01.359Z,3.70
2018-05-08T23:14:28.813Z,3.73
2018-05-08T23:16:56.246Z,3.13
2018-05-08T23:19:24.446Z,3.63
2018-05-08T23:21:52.270Z,3.40
2018-05-08T23:24:20.506Z,3.17
2018-05-08T23:26:47.939Z,3.57
2018-05-08T23:29:15.377Z,3.20
2018-05-08T23:31:42.818Z,3.40
2018-05-08T23:34:11.043Z,3.23
2018-05-08T23:36:38.465Z,3.33
2018-05-08T23:39:05.902Z,3.90
2018-05-08T23:41:34.094Z,3.10
2018-05-08T23:44:01.530Z,3.37
2018-05-08T23:46:29.740Z,3.70
2018-05-08T23:48:57.181Z,3.70
2018-05-08T23:51:24.606Z,3.70
2018-05-08T23:53:52.819Z,3.40
2018-05-08T23:56:20.245Z,3.73
2018-05-08T23:58:48.441Z,3.40
